sensor_id;sensor_type;location;lat;lon;timestamp;pressure;altitude;pressure_sealevel;temperature;humidity
20622;BME280;10470;42.670;23.354;2023-02-22T00:00:17;94814.38;;;8.38;94.06
20622;BME280;10470;42.670;23.354;2023-02-22T00:02:48;94811.94;;;8.27;96.07
20622;BME280;10470;42.670;23.354;2023-02-22T00:05:14;94811.66;;;8.38;94.43
20622;BME280;10470;42.670;23.354;2023-02-22T00:07:47;94818.97;;;8.25;96.04
20622;BME280;10470;42.670;23.354;2023-02-22T00:10:15;94815.84;;;8.26;96.88
20622;BME280;10470;42.670;23.354;2023-02-22T00:12:46;94809.22;;;8.27;97.84
20622;BME280;10470;42.670;23.354;2023-02-22T00:15:17;94814.88;;;8.20;100.00
20622;BME280;10470;42.670;23.354;2023-02-22T00:17:44;94804.69;;;7.95;100.00
20622;BME280;10470;42.670;23.354;2023-02-22T00:20:11;94816.59;;;7.85;100.00
20622;BME280;10470;42.670;23.354;2023-02-22T00:22:42;94808.81;;;7.87;100.00
20622;BME280;10470;42.670;23.354;2023-02-22T00:25:11;94813.25;;;7.94;100.00
20622;BME280;10470;42.670;23.354;2023-02-22T00:27:37;94811.22;;;7.98;100.00
20622;BME280;10470;42.670;23.354;2023-02-22T00:30:06;94810.25;;;7.75;100.00
20622;BME280;10470;42.670;23.354;2023-02-22T00:32:34;94814.22;;;7.58;100.00
20622;BME280;10470;42.670;23.354;2023-02-22T00:34:59;94808.13;;;7.54;100.00
20622;BME280;10470;42.670;23.354;2023-02-22T00:37:25;94806.53;;;7.40;100.00
20622;BME280;10470;42.670;23.354;2023-02-22T00:39:51;94801.38;;;7.46;100.00
20622;BME280;10470;42.670;23.354;2023-02-22T00:42:17;94802.28;;;7.55;100.00
20622;BME280;10470;42.670;23.354;2023-02-22T00:44:43;94790.09;;;7.76;100.00
20622;BME280;10470;42.670;23.354;2023-02-22T00:47:09;94778.69;;;7.69;100.00
20622;BME280;10470;42.670;23.354;2023-02-22T00:49:35;94791.19;;;7.79;100.00
20622;BME280;10470;42.670;23.354;2023-02-22T00:52:01;94782.31;;;7.78;100.00
20622;BME280;10470;42.670;23.354;2023-02-22T00:54:26;94792.63;;;7.83;100.00
20622;BME280;10470;42.670;23.354;2023-02-22T00:56:52;94788.53;;;7.92;100.00
20622;BME280;10470;42.670;23.354;2023-02-22T00:59:17;94790.81;;;7.93;100.00
20622;BME280;10470;42.670;23.354;2023-02-22T01:01:43;94778.13;;;8.03;100.00
20622;BME280;10470;42.670;23.354;2023-02-22T01:04:08;94775.69;;;7.79;100.00
20622;BME280;10470;42.670;23.354;2023-02-22T01:06:34;94773.34;;;7.65;100.00
20622;BME280;10470;42.670;23.354;2023-02-22T01:09:00;94772.50;;;7.68;100.00
20622;BME280;10470;42.670;23.354;2023-02-22T01:11:26;94767.78;;;7.56;100.00
20622;BME280;10470;42.670;23.354;2023-02-22T01:13:52;94763.59;;;7.68;100.00
20622;BME280;10470;42.670;23.354;2023-02-22T01:16:18;94769.13;;;7.64;100.00
20622;BME280;10470;42.670;23.354;2023-02-22T01:18:44;94760.59;;;7.49;100.00
20622;BME280;10470;42.670;23.354;2023-02-22T01:21:10;94767.22;;;7.48;100.00
20622;BME280;10470;42.670;23.354;2023-02-22T01:23:35;94754.09;;;7.47;100.00
20622;BME280;10470;42.670;23.354;2023-02-22T01:26:01;94749.19;;;7.41;100.00
20622;BME280;10470;42.670;23.354;2023-02-22T01:28:30;94757.59;;;7.31;100.00
20622;BME280;10470;42.670;23.354;2023-02-22T01:30:55;94757.53;;;7.34;100.00
20622;BME280;10470;42.670;23.354;2023-02-22T01:33:21;94758.16;;;7.38;100.00
20622;BME280;10470;42.670;23.354;2023-02-22T01:35:46;94744.41;;;7.16;100.00
20622;BME280;10470;42.670;23.354;2023-02-22T01:38:14;94764.16;;;7.00;100.00
20622;BME280;10470;42.670;23.354;2023-02-22T01:40:41;94759.00;;;7.06;100.00
20622;BME280;10470;42.670;23.354;2023-02-22T01:43:27;94758.38;;;7.15;100.00
20622;BME280;10470;42.670;23.354;2023-02-22T01:46:24;94768.03;;;6.99;100.00
20622;BME280;10470;42.670;23.354;2023-02-22T01:48:55;94763.72;;;7.02;100.00
20622;BME280;10470;42.670;23.354;2023-02-22T01:51:28;94757.47;;;6.89;100.00
20622;BME280;10470;42.670;23.354;2023-02-22T01:54:01;94765.44;;;6.96;100.00
20622;BME280;10470;42.670;23.354;2023-02-22T01:56:30;94763.31;;;6.87;100.00
20622;BME280;10470;42.670;23.354;2023-02-22T01:59:06;94764.41;;;7.06;100.00
20622;BME280;10470;42.670;23.354;2023-02-22T02:01:34;94761.34;;;7.20;100.00
20622;BME280;10470;42.670;23.354;2023-02-22T02:04:03;94753.34;;;7.00;100.00
20622;BME280;10470;42.670;23.354;2023-02-22T02:06:32;94759.06;;;6.86;100.00
20622;BME280;10470;42.670;23.354;2023-02-22T02:11:27;94760.19;;;6.72;100.00
20622;BME280;10470;42.670;23.354;2023-02-22T02:13:55;94761.53;;;6.64;100.00
20622;BME280;10470;42.670;23.354;2023-02-22T02:16:30;94765.06;;;6.61;100.00
20622;BME280;10470;42.670;23.354;2023-02-22T02:18:58;94778.59;;;6.61;100.00
20622;BME280;10470;42.670;23.354;2023-02-22T02:21:46;94772.03;;;6.62;100.00
20622;BME280;10470;42.670;23.354;2023-02-22T02:27:15;94776.00;;;6.57;100.00
20622;BME280;10470;42.670;23.354;2023-02-22T02:32:51;94776.75;;;6.58;100.00
20622;BME280;10470;42.670;23.354;2023-02-22T02:35:27;94777.75;;;6.48;100.00
20622;BME280;10470;42.670;23.354;2023-02-22T02:38:09;94779.44;;;6.58;100.00
20622;BME280;10470;42.670;23.354;2023-02-22T02:45:49;94775.56;;;6.59;100.00
20622;BME280;10470;42.670;23.354;2023-02-22T02:48:19;94782.25;;;6.54;100.00
20622;BME280;10470;42.670;23.354;2023-02-22T02:50:47;94780.56;;;6.61;100.00
20622;BME280;10470;42.670;23.354;2023-02-22T02:53:18;94785.13;;;6.64;100.00
20622;BME280;10470;42.670;23.354;2023-02-22T02:55:45;94791.03;;;6.22;100.00
20622;BME280;10470;42.670;23.354;2023-02-22T02:58:17;94789.47;;;5.85;100.00
20622;BME280;10470;42.670;23.354;2023-02-22T03:00:44;94794.59;;;5.99;100.00
20622;BME280;10470;42.670;23.354;2023-02-22T03:12:03;94790.50;;;6.11;100.00
20622;BME280;10470;42.670;23.354;2023-02-22T03:17:17;94789.53;;;6.01;100.00
20622;BME280;10470;42.670;23.354;2023-02-22T03:19:57;94782.25;;;6.18;100.00
20622;BME280;10470;42.670;23.354;2023-02-22T03:22:31;94782.03;;;6.09;100.00
20622;BME280;10470;42.670;23.354;2023-02-22T03:25:14;94780.88;;;6.10;100.00
20622;BME280;10470;42.670;23.354;2023-02-22T03:27:44;94777.72;;;6.31;100.00
20622;BME280;10470;42.670;23.354;2023-02-22T03:30:37;94781.53;;;6.34;100.00
20622;BME280;10470;42.670;23.354;2023-02-22T03:33:06;94783.88;;;6.32;100.00
20622;BME280;10470;42.670;23.354;2023-02-22T03:35:39;94779.00;;;6.43;100.00
20622;BME280;10470;42.670;23.354;2023-02-22T03:38:10;94769.88;;;6.37;100.00
20622;BME280;10470;42.670;23.354;2023-02-22T03:40:41;94782.50;;;6.44;100.00
20622;BME280;10470;42.670;23.354;2023-02-22T03:43:13;94786.44;;;6.39;100.00
20622;BME280;10470;42.670;23.354;2023-02-22T03:45:42;94776.25;;;6.27;100.00
20622;BME280;10470;42.670;23.354;2023-02-22T03:51:31;94786.00;;;5.84;100.00
20622;BME280;10470;42.670;23.354;2023-02-22T03:53:57;94789.31;;;5.72;100.00
20622;BME280;10470;42.670;23.354;2023-02-22T03:56:28;94779.00;;;5.67;100.00
20622;BME280;10470;42.670;23.354;2023-02-22T03:59:02;94779.00;;;5.87;100.00
20622;BME280;10470;42.670;23.354;2023-02-22T04:01:29;94779.00;;;5.87;100.00
20622;BME280;10470;42.670;23.354;2023-02-22T04:03:54;94772.84;;;5.86;100.00
20622;BME280;10470;42.670;23.354;2023-02-22T04:06:20;94779.13;;;5.80;100.00
20622;BME280;10470;42.670;23.354;2023-02-22T04:08:46;94776.28;;;5.87;100.00
20622;BME280;10470;42.670;23.354;2023-02-22T04:11:11;94781.00;;;5.83;100.00
20622;BME280;10470;42.670;23.354;2023-02-22T04:13:37;94777.06;;;5.87;100.00
20622;BME280;10470;42.670;23.354;2023-02-22T04:16:02;94779.56;;;5.98;100.00
20622;BME280;10470;42.670;23.354;2023-02-22T04:18:30;94766.59;;;5.69;100.00
20622;BME280;10470;42.670;23.354;2023-02-22T04:20:56;94779.47;;;5.82;100.00
20622;BME280;10470;42.670;23.354;2023-02-22T04:23:21;94767.34;;;5.70;100.00
20622;BME280;10470;42.670;23.354;2023-02-22T04:25:47;94782.09;;;5.85;100.00
20622;BME280;10470;42.670;23.354;2023-02-22T04:28:13;94787.25;;;5.80;100.00
20622;BME280;10470;42.670;23.354;2023-02-22T04:30:39;94788.84;;;5.77;100.00
20622;BME280;10470;42.670;23.354;2023-02-22T04:33:05;94796.66;;;5.72;100.00
20622;BME280;10470;42.670;23.354;2023-02-22T04:35:30;94793.47;;;5.77;100.00
20622;BME280;10470;42.670;23.354;2023-02-22T04:37:55;94794.09;;;5.84;100.00
20622;BME280;10470;42.670;23.354;2023-02-22T04:40:22;94791.19;;;5.75;100.00
20622;BME280;10470;42.670;23.354;2023-02-22T04:42:48;94789.81;;;5.67;100.00
20622;BME280;10470;42.670;23.354;2023-02-22T04:45:13;94786.00;;;5.64;100.00
20622;BME280;10470;42.670;23.354;2023-02-22T04:47:39;94787.44;;;5.69;100.00
20622;BME280;10470;42.670;23.354;2023-02-22T04:50:06;94782.13;;;5.42;100.00
20622;BME280;10470;42.670;23.354;2023-02-22T04:52:32;94783.97;;;5.48;100.00
20622;BME280;10470;42.670;23.354;2023-02-22T04:54:57;94784.50;;;5.40;100.00
20622;BME280;10470;42.670;23.354;2023-02-22T04:57:23;94780.50;;;5.48;100.00
20622;BME280;10470;42.670;23.354;2023-02-22T04:59:48;94786.66;;;5.48;100.00
20622;BME280;10470;42.670;23.354;2023-02-22T05:02:16;94791.25;;;5.52;100.00
20622;BME280;10470;42.670;23.354;2023-02-22T05:04:41;94794.97;;;5.38;100.00
20622;BME280;10470;42.670;23.354;2023-02-22T05:07:07;94776.56;;;5.29;100.00
20622;BME280;10470;42.670;23.354;2023-02-22T05:09:32;94780.22;;;5.42;100.00
20622;BME280;10470;42.670;23.354;2023-02-22T05:11:58;94795.44;;;5.33;100.00
20622;BME280;10470;42.670;23.354;2023-02-22T05:14:23;94801.31;;;5.28;100.00
20622;BME280;10470;42.670;23.354;2023-02-22T05:17:01;94798.13;;;5.33;100.00
20622;BME280;10470;42.670;23.354;2023-02-22T05:19:27;94789.56;;;5.38;100.00
20622;BME280;10470;42.670;23.354;2023-02-22T05:21:53;94796.50;;;5.15;100.00
20622;BME280;10470;42.670;23.354;2023-02-22T05:24:20;94803.09;;;5.14;100.00
20622;BME280;10470;42.670;23.354;2023-02-22T05:26:46;94803.94;;;5.31;100.00
20622;BME280;10470;42.670;23.354;2023-02-22T05:29:12;94796.66;;;5.28;100.00
20622;BME280;10470;42.670;23.354;2023-02-22T05:31:37;94803.06;;;5.38;100.00
20622;BME280;10470;42.670;23.354;2023-02-22T05:34:03;94808.59;;;5.31;100.00
20622;BME280;10470;42.670;23.354;2023-02-22T05:36:29;94817.25;;;5.42;100.00
20622;BME280;10470;42.670;23.354;2023-02-22T05:38:55;94824.63;;;5.41;100.00
20622;BME280;10470;42.670;23.354;2023-02-22T05:41:20;94823.84;;;5.41;100.00
20622;BME280;10470;42.670;23.354;2023-02-22T05:43:46;94826.31;;;5.32;100.00
20622;BME280;10470;42.670;23.354;2023-02-22T05:46:13;94833.78;;;5.47;100.00
20622;BME280;10470;42.670;23.354;2023-02-22T05:48:38;94834.19;;;5.46;100.00
20622;BME280;10470;42.670;23.354;2023-02-22T05:51:04;94829.13;;;5.48;100.00
20622;BME280;10470;42.670;23.354;2023-02-22T05:53:29;94831.59;;;5.39;100.00
20622;BME280;10470;42.670;23.354;2023-02-22T05:55:55;94833.16;;;5.40;100.00
20622;BME280;10470;42.670;23.354;2023-02-22T05:58:21;94830.84;;;5.38;100.00
20622;BME280;10470;42.670;23.354;2023-02-22T06:00:46;94836.19;;;5.42;100.00
20622;BME280;10470;42.670;23.354;2023-02-22T06:03:12;94846.41;;;5.54;100.00
20622;BME280;10470;42.670;23.354;2023-02-22T06:05:37;94835.88;;;5.60;100.00
20622;BME280;10470;42.670;23.354;2023-02-22T06:08:04;94835.41;;;5.65;100.00
20622;BME280;10470;42.670;23.354;2023-02-22T06:10:30;94843.59;;;5.81;100.00
20622;BME280;10470;42.670;23.354;2023-02-22T06:12:57;94841.19;;;5.87;100.00
20622;BME280;10470;42.670;23.354;2023-02-22T06:15:24;94847.44;;;5.84;100.00
20622;BME280;10470;42.670;23.354;2023-02-22T06:17:51;94839.34;;;5.60;100.00
20622;BME280;10470;42.670;23.354;2023-02-22T06:20:20;94838.44;;;5.67;100.00
20622;BME280;10470;42.670;23.354;2023-02-22T06:22:46;94838.22;;;6.01;100.00
20622;BME280;10470;42.670;23.354;2023-02-22T06:25:15;94843.50;;;6.28;100.00
20622;BME280;10470;42.670;23.354;2023-02-22T06:27:41;94842.31;;;6.09;100.00
20622;BME280;10470;42.670;23.354;2023-02-22T06:30:08;94840.84;;;6.25;100.00
20622;BME280;10470;42.670;23.354;2023-02-22T06:32:34;94844.16;;;6.32;100.00
20622;BME280;10470;42.670;23.354;2023-02-22T06:34:59;94843.84;;;6.30;100.00
20622;BME280;10470;42.670;23.354;2023-02-22T06:37:24;94846.03;;;6.55;100.00
20622;BME280;10470;42.670;23.354;2023-02-22T06:39:50;94838.13;;;6.81;100.00
20622;BME280;10470;42.670;23.354;2023-02-22T06:42:15;94839.47;;;6.89;100.00
20622;BME280;10470;42.670;23.354;2023-02-22T06:44:41;94851.84;;;7.07;100.00
20622;BME280;10470;42.670;23.354;2023-02-22T06:47:06;94856.00;;;7.28;100.00
20622;BME280;10470;42.670;23.354;2023-02-22T06:49:32;94855.00;;;7.38;100.00
20622;BME280;10470;42.670;23.354;2023-02-22T06:51:57;94850.41;;;7.51;100.00
20622;BME280;10470;42.670;23.354;2023-02-22T06:54:22;94832.88;;;7.56;100.00
20622;BME280;10470;42.670;23.354;2023-02-22T06:56:48;94858.56;;;7.80;100.00
20622;BME280;10470;42.670;23.354;2023-02-22T06:59:14;94842.97;;;7.84;100.00
20622;BME280;10470;42.670;23.354;2023-02-22T07:01:41;94853.19;;;7.93;100.00
20622;BME280;10470;42.670;23.354;2023-02-22T07:04:07;94856.78;;;7.90;100.00
20622;BME280;10470;42.670;23.354;2023-02-22T07:06:32;94848.50;;;8.10;100.00
20622;BME280;10470;42.670;23.354;2023-02-22T07:08:58;94859.63;;;8.28;100.00
20622;BME280;10470;42.670;23.354;2023-02-22T07:11:23;94856.19;;;8.12;100.00
20622;BME280;10470;42.670;23.354;2023-02-22T07:13:49;94810.25;;;7.92;100.00
20622;BME280;10470;42.670;23.354;2023-02-22T07:16:14;94854.81;;;8.49;100.00
20622;BME280;10470;42.670;23.354;2023-02-22T07:18:40;94852.53;;;8.60;100.00
20622;BME280;10470;42.670;23.354;2023-02-22T07:21:05;94864.38;;;8.66;100.00
20622;BME280;10470;42.670;23.354;2023-02-22T07:23:32;94851.25;;;8.65;100.00
20622;BME280;10470;42.670;23.354;2023-02-22T07:26:01;94869.59;;;8.73;100.00
20622;BME280;10470;42.670;23.354;2023-02-22T07:28:27;94864.06;;;8.64;100.00
20622;BME280;10470;42.670;23.354;2023-02-22T07:30:53;94863.84;;;8.59;100.00
20622;BME280;10470;42.670;23.354;2023-02-22T07:33:18;94862.53;;;8.63;100.00
20622;BME280;10470;42.670;23.354;2023-02-22T07:35:46;94861.47;;;8.99;100.00
20622;BME280;10470;42.670;23.354;2023-02-22T07:38:14;94856.38;;;9.01;100.00
20622;BME280;10470;42.670;23.354;2023-02-22T07:40:40;94856.38;;;9.27;100.00
20622;BME280;10470;42.670;23.354;2023-02-22T07:43:14;94849.63;;;9.31;99.70
20622;BME280;10470;42.670;23.354;2023-02-22T07:45:39;94846.09;;;9.44;99.68
20622;BME280;10470;42.670;23.354;2023-02-22T07:48:05;94845.91;;;9.25;100.00
20622;BME280;10470;42.670;23.354;2023-02-22T07:50:32;94852.50;;;9.62;99.09
20622;BME280;10470;42.670;23.354;2023-02-22T07:53:04;94850.13;;;9.87;95.80
20622;BME280;10470;42.670;23.354;2023-02-22T07:55:31;94858.59;;;10.01;94.46
20622;BME280;10470;42.670;23.354;2023-02-22T07:57:59;94854.22;;;10.04;93.76
20622;BME280;10470;42.670;23.354;2023-02-22T08:00:27;94851.03;;;10.05;92.30
20622;BME280;10470;42.670;23.354;2023-02-22T08:02:53;94853.34;;;10.29;91.65
20622;BME280;10470;42.670;23.354;2023-02-22T08:05:21;94850.31;;;10.49;88.68
20622;BME280;10470;42.670;23.354;2023-02-22T08:07:48;94847.81;;;10.64;87.49
20622;BME280;10470;42.670;23.354;2023-02-22T08:10:14;94846.34;;;10.72;86.25
20622;BME280;10470;42.670;23.354;2023-02-22T08:12:41;94849.28;;;10.87;86.20
20622;BME280;10470;42.670;23.354;2023-02-22T08:15:08;94849.75;;;10.85;85.41
20622;BME280;10470;42.670;23.354;2023-02-22T08:17:33;94849.28;;;10.87;83.99
20622;BME280;10470;42.670;23.354;2023-02-22T08:19:59;94843.50;;;11.16;83.67
20622;BME280;10470;42.670;23.354;2023-02-22T08:22:24;94847.63;;;11.21;81.93
20622;BME280;10470;42.670;23.354;2023-02-22T08:24:52;94847.31;;;11.28;81.82
20622;BME280;10470;42.670;23.354;2023-02-22T08:27:28;94847.19;;;11.31;80.09
20622;BME280;10470;42.670;23.354;2023-02-22T08:29:55;94840.78;;;11.25;80.34
20622;BME280;10470;42.670;23.354;2023-02-22T08:32:21;94839.59;;;11.26;79.78
20622;BME280;10470;42.670;23.354;2023-02-22T08:34:47;94842.97;;;11.49;79.02
20622;BME280;10470;42.670;23.354;2023-02-22T08:37:16;94850.47;;;11.76;77.13
20622;BME280;10470;42.670;23.354;2023-02-22T08:39:42;94843.03;;;11.76;75.41
20622;BME280;10470;42.670;23.354;2023-02-22T08:42:08;94830.13;;;11.77;75.48
20622;BME280;10470;42.670;23.354;2023-02-22T08:44:35;94826.81;;;12.00;74.63
20622;BME280;10470;42.670;23.354;2023-02-22T08:47:01;94826.69;;;12.04;73.75
20622;BME280;10470;42.670;23.354;2023-02-22T08:49:28;94831.66;;;12.33;72.60
20622;BME280;10470;42.670;23.354;2023-02-22T08:51:53;94836.66;;;12.53;71.67
20622;BME280;10470;42.670;23.354;2023-02-22T08:54:19;94828.41;;;12.62;70.26
20622;BME280;10470;42.670;23.354;2023-02-22T08:56:44;94834.50;;;12.66;70.01
20622;BME280;10470;42.670;23.354;2023-02-22T08:59:09;94827.44;;;12.84;69.37
20622;BME280;10470;42.670;23.354;2023-02-22T09:01:35;94832.25;;;12.98;69.66
20622;BME280;10470;42.670;23.354;2023-02-22T09:04:01;94825.91;;;12.92;69.59
20622;BME280;10470;42.670;23.354;2023-02-22T09:06:27;94825.09;;;13.01;69.38
20622;BME280;10470;42.670;23.354;2023-02-22T09:08:54;94826.59;;;13.11;68.82
20622;BME280;10470;42.670;23.354;2023-02-22T09:11:19;94820.78;;;13.18;69.02
20622;BME280;10470;42.670;23.354;2023-02-22T09:13:45;94824.31;;;13.43;68.67
20622;BME280;10470;42.670;23.354;2023-02-22T09:16:10;94815.03;;;13.49;67.37
20622;BME280;10470;42.670;23.354;2023-02-22T09:18:36;94820.13;;;13.81;67.04
20622;BME280;10470;42.670;23.354;2023-02-22T09:21:02;94820.78;;;13.75;66.26
20622;BME280;10470;42.670;23.354;2023-02-22T09:23:27;94821.44;;;13.46;66.15
20622;BME280;10470;42.670;23.354;2023-02-22T09:25:54;94820.13;;;13.57;65.91
20622;BME280;10470;42.670;23.354;2023-02-22T09:28:19;94819.03;;;13.63;65.50
20622;BME280;10470;42.670;23.354;2023-02-22T09:30:44;94811.88;;;13.66;65.17
20622;BME280;10470;42.670;23.354;2023-02-22T09:33:15;94816.16;;;13.82;64.89
20622;BME280;10470;42.670;23.354;2023-02-22T09:35:43;94813.88;;;14.04;63.99
20622;BME280;10470;42.670;23.354;2023-02-22T09:38:14;94808.50;;;14.10;63.42
20622;BME280;10470;42.670;23.354;2023-02-22T09:40:45;94806.34;;;14.14;62.47
20622;BME280;10470;42.670;23.354;2023-02-22T09:43:26;94813.69;;;14.23;61.82
20622;BME280;10470;42.670;23.354;2023-02-22T09:49:51;94805.50;;;14.37;60.42
20622;BME280;10470;42.670;23.354;2023-02-22T09:52:07;94805.50;;;14.52;60.32
20622;BME280;10470;42.670;23.354;2023-02-22T09:54:47;94806.84;;;14.57;59.32
20622;BME280;10470;42.670;23.354;2023-02-22T09:57:32;94807.97;;;14.65;59.48
20622;BME280;10470;42.670;23.354;2023-02-22T10:02:45;94800.50;;;14.80;58.67
20622;BME280;10470;42.670;23.354;2023-02-22T10:08:03;94787.19;;;14.58;58.58
20622;BME280;10470;42.670;23.354;2023-02-22T10:10:38;94788.84;;;14.85;58.64
20622;BME280;10470;42.670;23.354;2023-02-22T10:21:04;94773.13;;;15.01;56.83
20622;BME280;10470;42.670;23.354;2023-02-22T10:23:54;94774.66;;;15.22;56.91
20622;BME280;10470;42.670;23.354;2023-02-22T10:26:26;94768.78;;;15.29;56.51
20622;BME280;10470;42.670;23.354;2023-02-22T10:29:08;94759.66;;;15.38;56.43
20622;BME280;10470;42.670;23.354;2023-02-22T10:31:40;94767.31;;;15.49;55.71
20622;BME280;10470;42.670;23.354;2023-02-22T10:34:16;94754.59;;;15.31;55.77
20622;BME280;10470;42.670;23.354;2023-02-22T10:36:47;94760.78;;;15.87;54.79
20622;BME280;10470;42.670;23.354;2023-02-22T10:41:49;94751.38;;;15.94;53.07
20622;BME280;10470;42.670;23.354;2023-02-22T10:44:15;94743.72;;;16.30;52.64
20622;BME280;10470;42.670;23.354;2023-02-22T10:46:42;94728.44;;;16.29;52.78
20622;BME280;10470;42.670;23.354;2023-02-22T10:49:09;94735.91;;;16.54;52.54
20622;BME280;10470;42.670;23.354;2023-02-22T10:51:36;94730.66;;;16.83;52.22
20622;BME280;10470;42.670;23.354;2023-02-22T10:56:51;94730.94;;;17.28;51.19
20622;BME280;10470;42.670;23.354;2023-02-22T10:59:32;94721.00;;;17.41;50.19
20622;BME280;10470;42.670;23.354;2023-02-22T11:02:00;94720.19;;;17.35;50.10
20622;BME280;10470;42.670;23.354;2023-02-22T11:04:26;94720.13;;;17.78;50.21
20622;BME280;10470;42.670;23.354;2023-02-22T11:09:24;94714.81;;;17.63;49.20
20622;BME280;10470;42.670;23.354;2023-02-22T11:12:09;94697.66;;;17.31;49.72
20622;BME280;10470;42.670;23.354;2023-02-22T11:14:35;94704.06;;;17.71;48.99
20622;BME280;10470;42.670;23.354;2023-02-22T11:17:05;94709.97;;;18.52;48.64
20622;BME280;10470;42.670;23.354;2023-02-22T11:19:32;94698.53;;;17.60;48.66
20622;BME280;10470;42.670;23.354;2023-02-22T11:22:11;94693.13;;;17.88;48.68
20622;BME280;10470;42.670;23.354;2023-02-22T11:24:51;94676.06;;;17.89;47.67
20622;BME280;10470;42.670;23.354;2023-02-22T11:27:29;94703.41;;;17.99;47.33
20622;BME280;10470;42.670;23.354;2023-02-22T11:30:08;94689.38;;;17.97;46.84
20622;BME280;10470;42.670;23.354;2023-02-22T11:32:35;94693.69;;;18.71;46.84
20622;BME280;10470;42.670;23.354;2023-02-22T11:38:36;94686.16;;;18.71;46.47
20622;BME280;10470;42.670;23.354;2023-02-22T11:41:18;94687.63;;;19.01;45.26
20622;BME280;10470;42.670;23.354;2023-02-22T11:43:48;94678.25;;;19.96;44.57
20622;BME280;10470;42.670;23.354;2023-02-22T11:46:21;94669.91;;;20.37;42.99
20622;BME280;10470;42.670;23.354;2023-02-22T11:49:00;94675.34;;;20.13;43.16
20622;BME280;10470;42.670;23.354;2023-02-22T11:56:51;94673.53;;;19.85;42.69
20622;BME280;10470;42.670;23.354;2023-02-22T11:59:32;94680.19;;;20.06;42.22
20622;BME280;10470;42.670;23.354;2023-02-22T12:04:51;94666.44;;;19.95;41.67
20622;BME280;10470;42.670;23.354;2023-02-22T12:07:28;94664.44;;;19.90;41.90
20622;BME280;10470;42.670;23.354;2023-02-22T12:15:38;94657.66;;;20.63;41.48
20622;BME280;10470;42.670;23.354;2023-02-22T12:18:13;94656.56;;;21.21;40.12
20622;BME280;10470;42.670;23.354;2023-02-22T12:20:46;94646.50;;;21.99;39.44
20622;BME280;10470;42.670;23.354;2023-02-22T12:23:24;94653.03;;;20.95;38.74
20622;BME280;10470;42.670;23.354;2023-02-22T12:26:12;94643.91;;;21.25;39.08
20622;BME280;10470;42.670;23.354;2023-02-22T12:28:39;94642.84;;;21.72;38.33
20622;BME280;10470;42.670;23.354;2023-02-22T12:31:23;94638.41;;;22.52;37.55
20622;BME280;10470;42.670;23.354;2023-02-22T12:34:10;94646.44;;;22.69;37.09
20622;BME280;10470;42.670;23.354;2023-02-22T12:36:57;94633.31;;;21.48;38.02
20622;BME280;10470;42.670;23.354;2023-02-22T12:41:54;94628.38;;;21.98;37.26
20622;BME280;10470;42.670;23.354;2023-02-22T12:44:39;94630.28;;;21.27;37.96
20622;BME280;10470;42.670;23.354;2023-02-22T12:47:07;94626.63;;;21.76;37.89
20622;BME280;10470;42.670;23.354;2023-02-22T12:50:04;94629.53;;;22.21;37.11
20622;BME280;10470;42.670;23.354;2023-02-22T12:52:46;94631.84;;;22.36;36.88
20622;BME280;10470;42.670;23.354;2023-02-22T12:55:24;94637.19;;;22.48;36.28
20622;BME280;10470;42.670;23.354;2023-02-22T13:00:40;94619.78;;;22.34;36.04
20622;BME280;10470;42.670;23.354;2023-02-22T13:04:01;94622.09;;;22.75;36.13
20622;BME280;10470;42.670;23.354;2023-02-22T13:11:32;94621.16;;;23.26;34.45
20622;BME280;10470;42.670;23.354;2023-02-22T13:14:07;94620.47;;;22.80;34.63
20622;BME280;10470;42.670;23.354;2023-02-22T13:19:47;94621.78;;;24.98;33.52
20622;BME280;10470;42.670;23.354;2023-02-22T13:27:39;94628.56;;;25.39;32.37
20622;BME280;10470;42.670;23.354;2023-02-22T13:30:40;94618.78;;;24.25;33.33
20622;BME280;10470;42.670;23.354;2023-02-22T13:49:25;94621.38;;;25.51;32.18
20622;BME280;10470;42.670;23.354;2023-02-22T13:52:16;94607.53;;;25.74;31.95
20622;BME280;10470;42.670;23.354;2023-02-22T13:54:48;94612.13;;;27.08;31.65
20622;BME280;10470;42.670;23.354;2023-02-22T13:57:39;94613.06;;;26.26;31.81
20622;BME280;10470;42.670;23.354;2023-02-22T14:13:23;94617.16;;;26.25;31.82
20622;BME280;10470;42.670;23.354;2023-02-22T14:18:23;94611.25;;;26.51;30.63
20622;BME280;10470;42.670;23.354;2023-02-22T14:21:14;94609.84;;;26.06;31.41
20622;BME280;10470;42.670;23.354;2023-02-22T14:23:48;94607.88;;;26.99;30.97
20622;BME280;10470;42.670;23.354;2023-02-22T14:29:02;94610.53;;;25.11;32.44
20622;BME280;10470;42.670;23.354;2023-02-22T14:34:20;94587.63;;;22.38;35.07
20622;BME280;10470;42.670;23.354;2023-02-22T14:37:02;94597.47;;;22.39;35.72
20622;BME280;10470;42.670;23.354;2023-02-22T14:39:35;94592.28;;;22.89;35.51
20622;BME280;10470;42.670;23.354;2023-02-22T14:42:08;94587.97;;;21.65;35.50
20622;BME280;10470;42.670;23.354;2023-02-22T14:44:52;94597.00;;;22.03;36.13
20622;BME280;10470;42.670;23.354;2023-02-22T14:47:27;94591.47;;;22.03;35.73
20622;BME280;10470;42.670;23.354;2023-02-22T14:50:07;94595.16;;;20.67;36.85
20622;BME280;10470;42.670;23.354;2023-02-22T14:52:38;94597.59;;;20.46;37.57
20622;BME280;10470;42.670;23.354;2023-02-22T14:55:24;94595.47;;;20.03;38.28
20622;BME280;10470;42.670;23.354;2023-02-22T15:00:40;94602.91;;;19.78;38.12
20622;BME280;10470;42.670;23.354;2023-02-22T15:03:36;94594.03;;;19.44;38.33
20622;BME280;10470;42.670;23.354;2023-02-22T15:06:18;94584.13;;;19.18;38.74
20622;BME280;10470;42.670;23.354;2023-02-22T15:08:45;94586.47;;;18.97;38.60
20622;BME280;10470;42.670;23.354;2023-02-22T15:11:22;94584.66;;;19.11;38.62
20622;BME280;10470;42.670;23.354;2023-02-22T15:13:51;94589.28;;;18.75;39.56